Terminal Aerodrome Forecast
Issued by NWS

Home | Current Version | Previous Version | Text Only | Print | Product List | Glossary On
Versions: 1 2 3 4 5 6 7 8 9 10 11 12 13 14 15 16 17 18 19 20 21 22 23 24
000
FTUS43 KICT 222336
TAFSLN
TAF
KSLN 222336Z 2300/2324 12008KT P6SM BKN100
     FM231400 15014KT 6SM -SHRA OVC040
     FM231800 14015KT P6SM OVC009
     FM232200 14013KT 6SM -SHRA OVC010=

USA.gov is the U.S. government's official web portal to all federal, state and local government web resources and services.